Time;durP1;ratioP1;P1;durP2;ratioP2;P2;SDS_P1;SDS_P2;PMS_P1;PMS_P2;Temp;Humidity;BMP_temperature;BMP_pressure;BME280_temperature;BME280_humidity;BME280_pressure;Samples;Min_cycle;Max_cycle;Signal;HPM_P1;HPM_P2
2022/11/28 00:02:11;;;;;;;18.02;6.85;;;;;;;7.02;100.00;100803.44;5040716;28;20033;-81
2022/11/28 00:04:36;;;;;;;18.20;7.03;;;;;;;7.02;100.00;100804.28;5049305;28;20080;-80
2022/11/28 00:07:01;;;;;;;18.70;6.88;;;;;;;7.03;100.00;100808.69;5050297;28;20025;-80
2022/11/28 00:09:27;;;;;;;19.05;6.85;;;;;;;7.06;100.00;100804.97;5051389;28;20049;-81
2022/11/28 00:11:52;;;;;;;20.25;7.88;;;;;;;7.08;100.00;100805.75;5026708;28;20053;-81
2022/11/28 00:14:18;;;;;;;19.02;6.72;;;;;;;7.09;100.00;100800.31;5044705;28;20033;-81
2022/11/28 00:16:44;;;;;;;16.00;6.00;;;;;;;7.09;100.00;100797.63;5036607;28;20022;-81
2022/11/28 00:19:10;;;;;;;17.20;5.97;;;;;;;7.13;100.00;100798.31;5049928;28;20039;-81
2022/11/28 00:21:36;;;;;;;20.65;6.93;;;;;;;7.13;100.00;100793.84;5028493;28;20051;-81
2022/11/28 00:24:03;;;;;;;17.48;6.25;;;;;;;7.16;100.00;100788.31;5052594;28;20105;-81
2022/11/28 00:26:31;;;;;;;16.13;6.00;;;;;;;7.18;100.00;100796.22;5028815;28;20033;-81
2022/11/28 00:28:57;;;;;;;19.15;6.13;;;;;;;7.20;100.00;100788.13;5050634;28;20033;-81
2022/11/28 00:31:30;;;;;;;16.25;5.75;;;;;;;7.22;100.00;100789.75;5037427;28;20029;-81
2022/11/28 00:33:55;;;;;;;17.80;5.35;;;;;;;7.25;100.00;100786.03;5030471;28;20033;-81
2022/11/28 00:36:22;;;;;;;15.43;5.35;;;;;;;7.29;100.00;100780.41;5020437;28;20400;-81
2022/11/28 00:38:48;;;;;;;15.30;5.47;;;;;;;7.31;100.00;100772.28;5044609;28;20105;-80
2022/11/28 00:41:19;;;;;;;18.58;4.97;;;;;;;7.33;100.00;100784.59;5026679;28;20593;-81
2022/11/28 00:43:46;;;;;;;13.25;4.50;;;;;;;7.35;100.00;100785.38;5039568;28;20036;-81
2022/11/28 00:46:13;;;;;;;17.42;5.38;;;;;;;7.38;100.00;100788.81;5033280;28;20037;-81
2022/11/28 00:48:38;;;;;;;16.38;5.72;;;;;;;7.39;100.00;100779.84;5031621;28;20027;-81
2022/11/28 00:51:12;;;;;;;19.27;5.75;;;;;;;7.39;100.00;100778.00;5034612;28;20029;-81
2022/11/28 00:53:40;;;;;;;16.25;5.15;;;;;;;7.40;100.00;100777.06;5052296;28;20031;-81
2022/11/28 00:56:07;;;;;;;16.02;5.43;;;;;;;7.41;100.00;100778.81;5046340;28;20462;-81
2022/11/28 00:58:34;;;;;;;18.10;5.53;;;;;;;7.41;100.00;100768.09;5034120;28;20067;-81
2022/11/28 01:01:00;;;;;;;16.98;5.57;;;;;;;7.42;100.00;100779.66;5046845;28;20027;-81
2022/11/28 01:03:25;;;;;;;14.45;4.80;;;;;;;7.43;100.00;100773.34;5046184;28;20496;-81
2022/11/28 01:05:50;;;;;;;14.95;4.60;;;;;;;7.42;100.00;100767.13;5043646;28;20029;-81
2022/11/28 01:08:16;;;;;;;16.15;4.75;;;;;;;7.44;100.00;100777.75;5028283;28;20465;-81
2022/11/28 01:10:43;;;;;;;15.20;5.30;;;;;;;7.45;100.00;100784.81;5023654;28;20489;-81
2022/11/28 01:13:09;;;;;;;16.25;5.50;;;;;;;7.45;100.00;100774.09;5029862;28;20041;-81
2022/11/28 01:15:35;;;;;;;18.00;5.25;;;;;;;7.46;100.00;100778.50;5026423;28;20025;-81
2022/11/28 01:18:01;;;;;;;14.77;4.53;;;;;;;7.46;100.00;100773.16;5028030;28;20115;-81
2022/11/28 01:20:27;;;;;;;16.05;5.13;;;;;;;7.45;100.00;100766.97;5030127;28;20384;-81
2022/11/28 01:22:52;;;;;;;16.92;5.30;;;;;;;7.45;100.00;100777.66;5049299;28;21341;-81
2022/11/28 01:25:17;;;;;;;15.43;4.43;;;;;;;7.45;100.00;100777.66;5021255;28;20512;-81
2022/11/28 01:27:43;;;;;;;15.52;4.75;;;;;;;7.45;100.00;100769.63;5026355;28;20083;-81
2022/11/28 01:30:08;;;;;;;15.80;4.90;;;;;;;7.45;100.00;100771.44;5051229;28;20449;-81
2022/11/28 01:32:34;;;;;;;14.73;4.90;;;;;;;7.45;100.00;100777.66;5045208;28;20029;-81
2022/11/28 01:34:59;;;;;;;16.63;5.05;;;;;;;7.46;100.00;100779.34;5030282;28;20571;-81
2022/11/28 01:37:24;;;;;;;13.85;4.65;;;;;;;7.46;100.00;100773.16;5024340;28;20029;-81
2022/11/28 01:39:49;;;;;;;16.27;4.95;;;;;;;7.47;100.00;100774.91;5043257;28;20028;-81
2022/11/28 01:42:17;;;;;;;12.50;4.40;;;;;;;7.45;100.00;100779.47;5044221;28;20473;-81
2022/11/28 01:44:49;;;;;;;17.50;5.07;;;;;;;7.45;100.00;100779.47;5024134;28;20024;-81
2022/11/28 01:47:20;;;;;;;13.55;4.47;;;;;;;7.44;100.00;100773.25;5044022;28;20492;-81
2022/11/28 01:49:47;;;;;;;14.02;5.05;;;;;;;7.43;100.00;100774.19;5044406;28;20124;-81
2022/11/28 01:52:16;;;;;;;15.13;5.07;;;;;;;7.42;100.00;100777.81;5041399;28;20036;-81
2022/11/28 01:54:44;;;;;;;15.25;5.10;;;;;;;7.40;100.00;100778.91;5040125;28;20033;-81
2022/11/28 01:57:15;;;;;;;17.75;5.65;;;;;;;7.39;100.00;100771.81;5024609;28;20044;-81
2022/11/28 01:59:44;;;;;;;17.45;5.03;;;;;;;7.38;100.00;100773.66;5018907;28;20029;-81
2022/11/28 02:02:17;;;;;;;15.60;5.22;;;;;;;7.36;100.00;100770.19;5042805;28;20029;-80
2022/11/28 02:04:43;;;;;;;16.33;4.95;;;;;;;7.37;100.00;100768.38;5045327;28;20072;-80
2022/11/28 02:07:09;;;;;;;16.95;5.22;;;;;;;7.34;100.00;100767.59;5039519;28;20044;-80
2022/11/28 02:09:34;;;;;;;15.80;5.25;;;;;;;7.34;100.00;100764.94;5043603;28;20090;-80
2022/11/28 02:12:23;;;;;;;19.33;4.63;;;;;;;7.35;100.00;100760.47;5050517;28;20109;-80
2022/11/28 02:15:16;;;;;;;14.90;4.40;;;;;;;7.34;100.00;100759.59;5040946;28;20037;-80
2022/11/28 02:18:17;;;;;;;14.73;5.03;;;;;;;7.35;100.00;100757.78;5040571;28;20025;-80
2022/11/28 02:20:51;;;;;;;14.23;5.07;;;;;;;7.32;100.00;100753.50;5041342;28;20035;-80
2022/11/28 02:23:35;;;;;;;13.55;4.40;;;;;;;7.33;100.00;100751.66;5045758;28;20060;-80
2022/11/28 02:26:24;;;;;;;15.30;5.25;;;;;;;7.31;100.00;100749.09;5041634;28;20036;-80
2022/11/28 02:29:19;;;;;;;13.88;4.45;;;;;;;7.31;100.00;100746.41;5046349;28;20346;-80
2022/11/28 02:32:09;;;;;;;13.60;4.68;;;;;;;7.31;100.00;100748.22;5046197;28;20052;-80
2022/11/28 02:34:50;;;;;;;13.60;4.55;;;;;;;7.31;100.00;100751.75;5034712;28;20029;-80
2022/11/28 02:37:18;;;;;;;14.80;4.80;;;;;;;7.29;100.00;100747.44;5035684;28;20095;-80
2022/11/28 02:40:03;;;;;;;15.10;4.53;;;;;;;7.29;100.00;100750.13;5039983;28;20025;-80
2022/11/28 02:42:52;;;;;;;12.95;4.53;;;;;;;7.28;100.00;100751.94;5045053;28;20040;-80
2022/11/28 02:45:36;;;;;;;17.40;5.80;;;;;;;7.28;100.00;100748.44;5017893;28;20103;-80
2022/11/28 02:48:07;;;;;;;15.65;4.65;;;;;;;7.24;100.00;100747.75;5040908;28;20021;-80
2022/11/28 02:50:41;;;;;;;15.68;4.50;;;;;;;7.23;100.00;100743.34;5024759;28;20029;-80
2022/11/28 02:53:18;;;;;;;14.93;4.57;;;;;;;7.23;100.00;100748.69;5042393;28;20047;-80
2022/11/28 02:55:43;;;;;;;16.45;5.18;;;;;;;7.22;100.00;100755.00;5041607;28;20025;-80
2022/11/28 02:58:10;;;;;;;14.32;4.57;;;;;;;7.17;100.00;100739.25;5027587;28;20024;-80
2022/11/28 03:00:38;;;;;;;16.20;4.72;;;;;;;7.19;100.00;100739.16;5018763;28;20078;-80
2022/11/28 03:03:12;;;;;;;16.20;4.75;;;;;;;7.18;100.00;100734.75;5037337;28;20030;-80
2022/11/28 03:06:05;;;;;;;15.55;4.60;;;;;;;7.19;100.00;100728.47;5040606;28;20534;-80
2022/11/28 03:08:57;;;;;;;13.15;3.88;;;;;;;7.18;100.00;100734.75;5037636;28;20075;-80
2022/11/28 03:11:47;;;;;;;14.43;4.35;;;;;;;7.17;100.00;100730.34;5043695;28;20046;-80
2022/11/28 03:14:18;;;;;;;15.30;4.85;;;;;;;7.14;100.00;100730.53;5050805;28;20339;-80
2022/11/28 03:17:16;;;;;;;14.80;4.45;;;;;;;7.16;100.00;100723.31;5050564;28;20460;-80
2022/11/28 03:19:53;;;;;;;19.90;4.78;;;;;;;7.15;100.00;100726.94;5023304;28;20030;-80
2022/11/28 03:22:49;;;;;;;12.55;4.30;;;;;;;7.16;100.00;100723.31;5029921;28;20430;-80
2022/11/28 03:25:21;;;;;;;11.60;4.13;;;;;;;7.14;100.00;100720.69;5042215;28;20091;-80
2022/11/28 03:27:54;;;;;;;14.48;4.35;;;;;;;7.13;100.00;100726.13;5050125;28;20083;-80
2022/11/28 03:30:40;;;;;;;15.60;4.47;;;;;;;7.14;100.00;100723.38;5026626;28;20048;-80
2022/11/28 03:33:07;;;;;;;14.10;4.28;;;;;;;7.12;100.00;100722.63;5041342;28;20592;-80
2022/11/28 03:35:38;;;;;;;12.75;4.00;;;;;;;7.12;100.00;100727.13;5046674;28;20166;-80
2022/11/28 03:38:10;;;;;;;13.40;4.07;;;;;;;7.12;100.00;100727.13;5040982;28;20029;-80
2022/11/28 03:40:41;;;;;;;12.07;3.83;;;;;;;7.12;100.00;100719.09;5044786;28;20040;-80
2022/11/28 03:43:15;;;;;;;13.98;4.35;;;;;;;7.12;100.00;100727.13;5048835;28;20040;-80
2022/11/28 03:45:45;;;;;;;11.65;3.75;;;;;;;7.12;100.00;100713.75;5047944;28;20051;-81
2022/11/28 03:48:28;;;;;;;;;;;;;;;7.17;100.00;100722.34;5042196;28;20039;-80
2022/11/28 03:51:12;;;;;;;11.43;3.58;;;;;;;7.13;100.00;100715.44;5030423;28;19963;-80
2022/11/28 03:53:49;;;;;;;13.98;4.60;;;;;;;7.12;100.00;100727.97;5045220;28;20385;-80
2022/11/28 03:56:35;;;;;;;12.95;4.25;;;;;;;7.12;100.00;100727.13;5046152;28;20060;-80
2022/11/28 03:59:06;;;;;;;14.30;4.60;;;;;;;7.12;100.00;100721.78;5047098;28;20194;-80
2022/11/28 04:01:59;;;;;;;13.38;4.20;;;;;;;7.12;100.00;100721.78;5027733;28;20021;-80
2022/11/28 04:04:51;;;;;;;14.55;4.65;;;;;;;7.12;100.00;100716.44;5045455;28;20037;-80
2022/11/28 04:07:30;;;;;;;12.65;3.90;;;;;;;7.10;100.00;100724.53;5027636;28;20033;-80
2022/11/28 04:10:05;;;;;;;14.07;4.25;;;;;;;7.10;100.00;100726.31;5021196;28;20033;-80
2022/11/28 04:12:43;;;;;;;11.70;4.30;;;;;;;7.10;100.00;100729.00;5044645;28;20076;-80
2022/11/28 04:15:16;;;;;;;13.43;4.55;;;;;;;7.08;100.00;100722.91;5048365;28;20051;-81
2022/11/28 04:17:49;;;;;;;11.35;3.80;;;;;;;7.07;100.00;100723.84;5029661;28;20055;-80
2022/11/28 04:20:31;;;;;;;15.60;4.57;;;;;;;7.07;100.00;100721.16;5049533;28;20029;-80
2022/11/28 04:23:05;;;;;;;12.45;4.00;;;;;;;7.06;100.00;100724.78;5050997;28;20021;-80
2022/11/28 04:25:35;;;;;;;14.20;4.40;;;;;;;7.07;100.00;100721.16;5047890;28;20111;-80
2022/11/28 04:28:05;;;;;;;13.65;4.63;;;;;;;7.06;100.00;100733.69;5051084;28;20081;-80
2022/11/28 04:30:32;;;;;;;13.05;4.35;;;;;;;7.06;100.00;100732.81;5051333;28;20515;-80
2022/11/28 04:33:06;;;;;;;12.50;4.43;;;;;;;7.07;100.00;100724.72;5034993;28;20110;-80
2022/11/28 04:35:39;;;;;;;10.50;3.97;;;;;;;7.08;100.00;100725.56;5030373;28;20826;-80
2022/11/28 04:38:06;;;;;;;11.98;3.90;;;;;;;7.08;100.00;100733.59;5045911;28;20025;-80
2022/11/28 04:40:37;;;;;;;12.63;4.43;;;;;;;7.07;100.00;100727.41;5037276;28;20025;-80
2022/11/28 04:43:08;;;;;;;11.90;4.45;;;;;;;7.06;100.00;100723.00;5046997;28;21145;-80
2022/11/28 04:45:38;;;;;;;13.43;4.43;;;;;;;7.05;100.00;100725.75;5046737;28;20119;-80
2022/11/28 04:48:03;;;;;;;13.00;4.30;;;;;;;7.06;100.00;100725.66;5047487;28;20136;-80
2022/11/28 04:50:41;;;;;;;12.68;4.75;;;;;;;7.06;100.00;100724.78;5026238;28;20028;-80
2022/11/28 04:53:15;;;;;;;12.48;4.57;;;;;;;7.05;100.00;100725.75;5045490;28;20098;-80
2022/11/28 04:55:51;;;;;;;13.60;4.70;;;;;;;7.07;100.00;100723.84;5023086;28;20021;-80
2022/11/28 04:58:22;;;;;;;15.32;5.10;;;;;;;7.07;100.00;100726.53;5031373;28;20021;-80
2022/11/28 05:00:51;;;;;;;15.50;5.50;;;;;;;7.07;100.00;100726.53;5041953;28;20027;-80
2022/11/28 05:03:17;;;;;;;14.27;4.95;;;;;;;7.09;100.00;100729.97;5046085;28;20424;-80
2022/11/28 05:05:48;;;;;;;14.32;4.97;;;;;;;7.10;100.00;100729.00;5027371;28;20048;-80
2022/11/28 05:08:14;;;;;;;16.08;5.28;;;;;;;7.10;100.00;100731.69;5040078;28;20065;-80
2022/11/28 05:10:40;;;;;;;15.38;5.15;;;;;;;7.09;100.00;100729.97;5041334;28;20064;-81
2022/11/28 05:13:09;;;;;;;14.07;4.97;;;;;;;7.09;100.00;100724.63;5050612;28;20040;-81
2022/11/28 05:15:35;;;;;;;12.85;4.78;;;;;;;7.11;100.00;100736.06;5029495;28;20029;-80
2022/11/28 05:18:00;;;;;;;16.23;5.13;;;;;;;7.11;100.00;100736.06;5026231;28;20463;-80
2022/11/28 05:20:26;;;;;;;16.30;5.63;;;;;;;7.11;100.00;100738.75;5027116;28;20496;-80
2022/11/28 05:22:51;;;;;;;15.77;5.13;;;;;;;7.08;100.00;100737.13;5047477;28;20033;-80
2022/11/28 05:25:16;;;;;;;15.80;5.38;;;;;;;7.11;100.00;100734.25;5044125;28;20032;-80
2022/11/28 05:27:42;;;;;;;14.10;5.13;;;;;;;7.13;100.00;100744.84;5028869;28;20382;-80
2022/11/28 05:30:09;;;;;;;15.50;5.25;;;;;;;7.13;100.00;100736.84;5051649;28;20040;-80
2022/11/28 05:32:35;;;;;;;15.23;5.93;;;;;;;7.12;100.00;100738.66;5047082;28;20033;-80
2022/11/28 05:35:00;;;;;;;15.57;6.10;;;;;;;7.13;100.00;100737.72;5046874;28;20106;-81
2022/11/28 05:37:25;;;;;;;14.82;5.40;;;;;;;7.13;100.00;100742.19;5025180;28;20435;-81
2022/11/28 05:39:51;;;;;;;16.70;5.70;;;;;;;7.14;100.00;100747.44;5039192;28;20021;-80
2022/11/28 05:42:16;;;;;;;15.88;5.80;;;;;;;7.15;100.00;100743.81;5039835;28;20029;-81
2022/11/28 05:44:42;;;;;;;16.88;5.85;;;;;;;7.15;100.00;100742.97;5027481;28;20462;-81
2022/11/28 05:47:07;;;;;;;15.98;5.53;;;;;;;7.15;100.00;100743.81;5020591;28;20112;-81
2022/11/28 05:49:32;;;;;;;16.40;5.57;;;;;;;7.15;100.00;100751.81;5025905;28;20032;-81
2022/11/28 05:51:58;;;;;;;17.55;5.32;;;;;;;7.15;100.00;100748.31;5028373;28;20461;-80
2022/11/28 05:54:24;;;;;;;16.33;5.80;;;;;;;7.15;100.00;100746.47;5039864;28;20053;-80
2022/11/28 05:56:49;;;;;;;15.93;5.97;;;;;;;7.16;100.00;100740.19;5042516;28;20499;-81
2022/11/28 05:59:14;;;;;;;16.80;5.60;;;;;;;7.17;100.00;100741.03;5041933;28;20380;-81
2022/11/28 06:01:40;;;;;;;15.32;4.90;;;;;;;7.18;100.00;100750.78;5026293;28;20052;-80
2022/11/28 06:04:05;;;;;;;14.30;5.75;;;;;;;7.17;100.00;100743.72;5010317;28;20060;-80
2022/11/28 06:06:33;;;;;;;17.50;5.93;;;;;;;7.17;100.00;100743.72;5020159;28;20051;-80
2022/11/28 06:08:58;;;;;;;17.20;6.13;;;;;;;7.16;100.00;100740.19;5014838;28;20405;-80
2022/11/28 06:11:26;;;;;;;16.80;6.00;;;;;;;7.17;100.00;100743.72;5025129;28;20038;-80
2022/11/28 06:13:52;;;;;;;15.77;5.88;;;;;;;7.16;100.00;100740.19;5050167;28;20359;-80
2022/11/28 06:16:23;;;;;;;15.57;6.07;;;;;;;7.16;100.00;100742.00;5029912;28;20025;-80
2022/11/28 06:18:53;;;;;;;16.95;6.05;;;;;;;7.16;100.00;100745.53;5031662;28;20021;-80
2022/11/28 06:21:19;;;;;;;;;;;;;;;7.22;100.00;100749.66;5040334;28;20030;-80
2022/11/28 06:23:44;;;;;;;16.55;5.72;;;;;;;7.17;100.00;100752.63;5042011;28;19917;-80
2022/11/28 06:26:12;;;;;;;16.42;6.05;;;;;;;7.17;100.00;100749.06;5032088;28;20025;-80
2022/11/28 06:28:38;;;;;;;16.63;5.97;;;;;;;7.16;100.00;100756.22;5041914;28;20056;-80
2022/11/28 06:31:08;;;;;;;16.73;5.93;;;;;;;7.17;100.00;100757.06;5028514;28;20450;-80
2022/11/28 06:33:33;;;;;;;;;;;;;;;7.23;100.00;100766.53;5028143;28;20132;-80
2022/11/28 06:36:03;;;;;;;18.38;6.53;;;;;;;7.18;100.00;100761.47;5030076;28;20030;-80
2022/11/28 06:38:29;;;;;;;15.90;5.90;;;;;;;7.17;100.00;100762.44;5022696;28;20017;-80
2022/11/28 06:41:00;;;;;;;16.73;6.30;;;;;;;7.15;100.00;100764.34;5036770;28;20091;-80
2022/11/28 06:43:26;;;;;;;15.43;5.82;;;;;;;7.17;100.00;100762.44;5041253;28;20033;-80
2022/11/28 06:45:51;;;;;;;17.20;6.07;;;;;;;7.16;100.00;100760.72;5033550;28;20082;-80
2022/11/28 06:48:19;;;;;;;17.45;6.35;;;;;;;7.17;100.00;100762.44;5040220;28;20029;-80
2022/11/28 06:50:45;;;;;;;18.00;6.93;;;;;;;7.18;100.00;100758.81;5037837;28;20501;-80
2022/11/28 06:53:10;;;;;;;18.50;7.22;;;;;;;7.19;100.00;100755.19;5008908;28;20045;-80
2022/11/28 06:55:36;;;;;;;18.63;6.40;;;;;;;7.20;100.00;100756.88;5040055;28;20079;-80
2022/11/28 06:58:01;;;;;;;18.48;6.88;;;;;;;7.20;100.00;100762.22;5037338;28;20147;-80
2022/11/28 07:00:27;;;;;;;16.73;6.50;;;;;;;7.20;100.00;100762.22;5033241;28;20044;-80
2022/11/28 07:02:52;;;;;;;18.42;6.50;;;;;;;7.24;100.00;100765.59;5018406;28;20052;-80
2022/11/28 07:05:18;;;;;;;16.60;6.10;;;;;;;7.23;100.00;100762.03;5030894;28;20484;-80
2022/11/28 07:07:43;;;;;;;16.25;6.53;;;;;;;7.24;100.00;100763.78;5017607;28;20136;-80
2022/11/28 07:10:09;;;;;;;17.05;6.47;;;;;;;7.23;100.00;100770.06;5022880;28;20088;-80
2022/11/28 07:12:34;;;;;;;18.02;6.63;;;;;;;7.24;100.00;100771.78;5027847;28;20049;-81
2022/11/28 07:14:59;;;;;;;16.95;6.68;;;;;;;7.25;100.00;100776.19;5049386;28;20124;-80
2022/11/28 07:17:25;;;;;;;17.10;6.65;;;;;;;7.26;100.00;100772.56;5028996;28;20021;-80
2022/11/28 07:19:50;;;;;;;19.83;7.32;;;;;;;7.28;100.00;100775.16;5028422;28;20899;-80
2022/11/28 07:22:15;;;;;;;17.83;7.35;;;;;;;7.26;100.00;100771.69;5033225;28;20396;-80
2022/11/28 07:24:41;;;;;;;17.55;6.63;;;;;;;7.27;100.00;100779.63;5040676;28;20025;-80
2022/11/28 07:27:06;;;;;;;16.73;6.43;;;;;;;7.27;100.00;100778.78;5045689;28;20028;-80
2022/11/28 07:29:35;;;;;;;17.02;6.38;;;;;;;7.26;100.00;100777.94;5034313;28;20025;-81
2022/11/28 07:32:05;;;;;;;18.65;6.60;;;;;;;7.28;100.00;100781.34;5047591;28;20097;-81
2022/11/28 07:34:31;;;;;;;18.58;6.18;;;;;;;7.29;100.00;100785.75;5049046;28;20511;-80
2022/11/28 07:36:56;;;;;;;17.38;6.32;;;;;;;7.29;100.00;100792.91;5045089;28;20392;-80
2022/11/28 07:39:22;;;;;;;16.73;6.47;;;;;;;7.29;100.00;100788.44;5049120;28;20029;-80
2022/11/28 07:41:47;;;;;;;18.05;6.57;;;;;;;7.30;100.00;100790.13;5046768;28;20017;-80
2022/11/28 07:44:16;;;;;;;18.25;6.55;;;;;;;7.32;100.00;100792.72;5049300;28;20025;-80
2022/11/28 07:46:42;;;;;;;15.13;6.38;;;;;;;7.32;100.00;100792.72;5049394;28;20017;-80
2022/11/28 07:49:07;;;;;;;17.08;6.72;;;;;;;7.32;100.00;100796.25;5026741;28;20219;-80
2022/11/28 07:51:35;;;;;;;16.45;6.10;;;;;;;7.33;100.00;100794.44;5049457;28;20067;-80
2022/11/28 07:54:02;;;;;;;18.08;7.03;;;;;;;7.33;100.00;100799.78;5027519;28;20026;-80
2022/11/28 07:56:30;;;;;;;19.05;6.53;;;;;;;7.33;100.00;100805.97;5013979;28;20048;-81
2022/11/28 07:58:56;;;;;;;19.80;7.10;;;;;;;7.33;100.00;100805.97;5047340;28;20043;-80
2022/11/28 08:01:27;;;;;;;18.85;6.88;;;;;;;7.34;100.00;100806.84;5018904;28;20064;-80
2022/11/28 08:03:54;;;;;;;17.48;7.13;;;;;;;7.34;100.00;100812.22;5043435;28;20111;-80
2022/11/28 08:06:22;;;;;;;19.52;7.32;;;;;;;7.35;100.00;100803.25;5048736;28;20112;-80
2022/11/28 08:08:49;;;;;;;17.48;6.60;;;;;;;7.34;100.00;100813.06;5042665;28;20025;-80
2022/11/28 08:11:16;;;;;;;18.05;7.00;;;;;;;7.35;100.00;100814.78;5048090;28;20454;-81
2022/11/28 08:13:41;;;;;;;18.15;7.15;;;;;;;7.37;100.00;100811.16;5042918;28;20040;-81
2022/11/28 08:16:11;;;;;;;19.38;7.22;;;;;;;7.39;100.00;100819.94;5045234;28;20032;-81
2022/11/28 08:18:36;;;;;;;18.25;7.03;;;;;;;7.39;100.00;100812.78;5051612;28;20071;-81
2022/11/28 08:21:11;;;;;;;20.02;7.45;;;;;;;7.40;100.00;100822.53;5041810;28;20148;-81
2022/11/28 08:23:37;;;;;;;18.63;7.22;;;;;;;7.41;100.00;100824.25;5017542;28;20572;-80
2022/11/28 08:26:08;;;;;;;19.88;7.55;;;;;;;7.43;100.00;100813.47;5036800;28;20039;-80
2022/11/28 08:28:33;;;;;;;19.13;7.25;;;;;;;7.44;100.00;100821.41;5013657;28;20022;-80
2022/11/28 08:31:06;;;;;;;19.38;8.20;;;;;;;7.46;100.00;100819.47;5051370;28;20384;-80
2022/11/28 08:33:32;;;;;;;19.65;8.30;;;;;;;7.47;100.00;100817.69;5052255;28;20082;-80
2022/11/28 08:35:57;;;;;;;20.58;8.43;;;;;;;7.47;100.00;100823.03;5028963;28;20033;-80
2022/11/28 08:38:22;;;;;;;19.00;7.43;;;;;;;7.48;100.00;100825.59;5034097;28;20029;-80
2022/11/28 08:40:47;;;;;;;18.77;8.00;;;;;;;7.50;100.00;100830.84;5040939;28;20056;-80
2022/11/28 08:43:13;;;;;;;19.60;8.00;;;;;;;7.50;100.00;100831.72;5036400;28;20029;-80
2022/11/28 08:45:38;;;;;;;20.15;8.18;;;;;;;7.51;100.00;100833.44;5043324;28;20495;-80
2022/11/28 08:48:04;;;;;;;20.60;8.40;;;;;;;7.52;100.00;100828.94;5043507;28;20100;-80
2022/11/28 08:50:29;;;;;;;21.40;8.50;;;;;;;7.53;100.00;100838.69;5049010;28;20095;-80
2022/11/28 08:52:55;;;;;;;21.33;8.43;;;;;;;7.54;100.00;100829.72;5027530;28;20029;-80
2022/11/28 08:55:20;;;;;;;21.10;7.75;;;;;;;7.55;100.00;100831.44;5017249;28;20093;-81
2022/11/28 08:57:46;;;;;;;21.48;8.35;;;;;;;7.56;100.00;100822.47;5041546;28;20095;-80
2022/11/28 09:00:12;;;;;;;20.65;7.50;;;;;;;7.57;100.00;100828.66;5050000;28;20064;-81
2022/11/28 09:02:37;;;;;;;20.38;8.32;;;;;;;7.59;100.00;100827.63;5048306;28;20036;-80
2022/11/28 09:05:02;;;;;;;20.73;8.52;;;;;;;7.59;100.00;100822.25;5051842;28;20025;-80
2022/11/28 09:07:28;;;;;;;19.73;7.75;;;;;;;7.62;100.00;100824.75;5026247;28;20040;-81
2022/11/28 09:09:53;;;;;;;20.55;7.55;;;;;;;7.63;100.00;100837.19;5028159;28;20507;-80
2022/11/28 09:12:21;;;;;;;20.25;8.10;;;;;;;7.64;100.00;100833.56;5029919;28;20045;-81
2022/11/28 09:14:46;;;;;;;19.73;6.88;;;;;;;7.66;100.00;100836.13;5049774;28;20029;-81
2022/11/28 09:17:12;;;;;;;20.45;7.82;;;;;;;7.67;100.00;100832.47;5030663;28;20037;-80
2022/11/28 09:19:37;;;;;;;20.40;8.00;;;;;;;7.68;100.00;100837.75;5047056;28;20033;-80
2022/11/28 09:22:03;;;;;;;18.52;7.63;;;;;;;7.68;100.00;100844.91;5049334;28;20435;-81
2022/11/28 09:24:28;;;;;;;21.60;8.40;;;;;;;7.70;100.00;100843.00;5045201;28;20021;-80
2022/11/28 09:26:53;;;;;;;20.40;7.57;;;;;;;7.69;100.00;100844.81;5044209;28;20026;-80
2022/11/28 09:29:19;;;;;;;21.40;7.32;;;;;;;7.73;100.00;100844.63;5028991;28;20396;-80
2022/11/28 09:31:44;;;;;;;19.95;8.20;;;;;;;7.74;100.00;100849.03;5047034;28;20029;-80
2022/11/28 09:34:09;;;;;;;19.80;7.15;;;;;;;7.75;100.00;100843.59;5031474;28;20728;-80
2022/11/28 09:36:35;;;;;;;18.25;7.25;;;;;;;7.76;100.00;100845.31;5030815;28;20394;-80
2022/11/28 09:39:01;;;;;;;21.00;7.50;;;;;;;7.79;100.00;100844.25;5045579;28;20025;-80
2022/11/28 09:41:57;;;;;;;19.65;8.23;;;;;;;7.81;100.00;100848.56;5017658;28;20166;-80
2022/11/28 09:44:44;;;;;;;21.80;8.38;;;;;;;7.84;100.00;100852.84;5047388;28;20393;-80
2022/11/28 09:47:17;;;;;;;19.20;7.63;;;;;;;7.84;100.00;100843.00;5047219;28;20068;-80
2022/11/28 09:49:54;;;;;;;18.80;6.82;;;;;;;7.88;100.00;100849.03;5040175;28;20447;-80
2022/11/28 09:52:38;;;;;;;18.75;7.72;;;;;;;7.90;100.00;100849.81;5027366;28;20021;-80
2022/11/28 09:55:14;;;;;;;20.63;7.90;;;;;;;7.93;100.00;100849.59;5029270;28;20040;-80
2022/11/28 09:57:45;;;;;;;22.38;9.43;;;;;;;7.95;100.00;100854.84;5030668;28;20377;-80
2022/11/28 10:00:36;;;;;;;19.27;7.53;;;;;;;7.98;100.00;100852.88;5043629;28;20033;-80
2022/11/28 10:03:39;;;;;;;20.58;8.68;;;;;;;8.00;100.00;100858.97;5016451;28;20556;-80
2022/11/28 10:06:23;;;;;;;21.42;9.27;;;;;;;8.01;100.00;100854.50;5048813;28;20033;-81
2022/11/28 10:09:04;;;;;;;21.80;8.77;;;;;;;8.00;100.00;100845.59;5027756;28;20124;-81
2022/11/28 10:12:00;;;;;;;21.50;9.23;;;;;;;8.06;100.00;100847.03;5046908;28;20049;-81
2022/11/28 10:14:48;;;;;;;21.33;9.75;;;;;;;8.07;100.00;100847.88;5030828;28;20025;-81
2022/11/28 10:17:31;;;;;;;23.27;10.82;;;;;;;8.09;100.00;100848.66;5030321;28;20021;-81
2022/11/28 10:20:08;;;;;;;22.42;10.57;;;;;;;8.11;100.00;100844.06;5039292;28;20071;-81
2022/11/28 10:22:40;;;;;;;21.00;10.18;;;;;;;8.13;100.00;100848.38;5041521;28;20052;-81
2022/11/28 10:25:33;;;;;;;22.63;9.95;;;;;;;8.17;100.00;100849.00;5051040;28;20123;-80
2022/11/28 10:28:00;;;;;;;21.83;10.15;;;;;;;8.16;100.00;100848.16;5043909;28;20031;-81
2022/11/28 10:30:31;;;;;;;22.75;10.15;;;;;;;8.17;100.00;100846.34;5032070;28;20147;-81
2022/11/28 10:33:07;;;;;;;23.98;10.85;;;;;;;8.19;100.00;100853.31;5029696;28;20031;-80
2022/11/28 10:35:43;;;;;;;21.70;10.07;;;;;;;8.20;100.00;100849.69;5020417;28;20025;-80
2022/11/28 10:38:13;;;;;;;23.15;10.40;;;;;;;8.25;100.00;100848.56;5028125;28;20926;-80
2022/11/28 10:40:58;;;;;;;21.80;10.45;;;;;;;8.27;100.00;100854.66;5050840;28;20029;-80
2022/11/28 10:43:33;;;;;;;23.67;11.25;;;;;;;8.29;100.00;100858.97;5042254;28;20021;-80
2022/11/28 10:46:19;;;;;;;23.85;10.88;;;;;;;8.31;100.00;100856.19;5032980;28;20460;-80
2022/11/28 10:48:55;;;;;;;23.77;11.77;;;;;;;8.31;100.00;100859.72;5045946;28;20036;-80
2022/11/28 10:52:06;;;;;;;25.02;12.10;;;;;;;8.34;100.00;100869.38;5039498;28;20033;-80
2022/11/28 10:54:56;;;;;;;24.52;11.65;;;;;;;8.34;100.00;100870.22;4952987;28;20270;-80
2022/11/28 10:57:47;;;;;;;25.33;12.02;;;;;;;8.35;100.00;100868.44;4946383;28;20105;-81
2022/11/28 11:00:19;;;;;;;24.65;12.45;;;;;;;8.36;100.00;100867.44;4967864;28;20026;-81
2022/11/28 11:02:48;;;;;;;25.70;12.43;;;;;;;8.34;100.00;100862.19;4969158;28;20228;-81
2022/11/28 11:05:17;;;;;;;25.45;13.02;;;;;;;8.34;100.00;100867.53;4965676;28;20034;-81
2022/11/28 11:07:50;;;;;;;25.95;12.88;;;;;;;8.35;100.00;100865.75;4968353;28;20046;-81
2022/11/28 11:10:18;;;;;;;26.30;13.43;;;;;;;8.36;100.00;100865.66;4965565;28;20038;-81
2022/11/28 11:12:45;;;;;;;25.75;14.05;;;;;;;8.37;100.00;100863.81;4969098;28;20051;-81
2022/11/28 11:15:19;;;;;;;24.90;13.15;;;;;;;8.37;100.00;100862.00;4952925;28;20595;-81
2022/11/28 11:17:45;;;;;;;26.15;12.55;;;;;;;8.38;100.00;100858.38;4951299;28;20135;-81
2022/11/28 11:20:19;;;;;;;25.27;12.48;;;;;;;8.42;100.00;100858.16;4969421;28;20037;-81
2022/11/28 11:22:54;;;;;;;27.35;15.73;;;;;;;8.42;100.00;100860.84;4951355;28;20034;-81
2022/11/28 11:25:20;;;;;;;28.77;14.52;;;;;;;8.44;100.00;100856.28;4953480;28;20167;-81
2022/11/28 11:27:51;;;;;;;27.30;13.80;;;;;;;8.44;100.00;100859.81;4977324;28;20058;-81
2022/11/28 11:30:24;;;;;;;27.88;14.95;;;;;;;8.47;100.00;100853.41;5000855;28;20060;-81
2022/11/28 11:32:50;;;;;;;27.70;14.45;;;;;;;8.45;100.00;100856.19;5001042;28;20026;-81
2022/11/28 11:35:23;;;;;;;30.10;16.48;;;;;;;8.47;100.00;100854.28;5001523;28;20109;-81